Time;durP1;ratioP1;P1;durP2;ratioP2;P2;SDS_P1;SDS_P2;PMS_P1;PMS_P2;Temp;Humidity;BMP_temperature;BMP_pressure;BME280_temperature;BME280_humidity;BME280_pressure;Samples;Min_cycle;Max_cycle;Signal;HPM_P1;HPM_P2
2023/08/31 00:00:57;;;;;;;6.93;4.50;;;;;;;;;;5067658;28;20051;-84
2023/08/31 00:03:27;;;;;;;8.50;4.50;;;;;;;;;;5067570;28;20060;-85
2023/08/31 00:06:07;;;;;;;7.60;3.78;;;;;;;;;;5083685;28;20053;-85
2023/08/31 00:08:38;;;;;;;8.10;4.10;;;;;;;;;;5085294;28;20060;-86
2023/08/31 00:11:28;;;;;;;5.70;3.63;;;;;;;;;;5074802;28;20060;-86
2023/08/31 00:14:41;;;;;;;11.23;4.68;;;;;;;;;;5092988;28;20044;-85
2023/08/31 00:17:22;;;;;;;11.45;5.05;;;;;;;;;;5072865;28;20424;-85
2023/08/31 00:19:57;;;;;;;8.65;4.85;;;;;;;;;;5083121;28;20065;-85
2023/08/31 00:22:33;;;;;;;10.05;4.13;;;;;;;;;;5068464;28;20589;-86
2023/08/31 00:25:00;;;;;;;6.35;4.50;;;;;;;;;;5067448;28;20091;-86
2023/08/31 00:27:40;;;;;;;6.05;4.00;;;;;;;;;;5066659;28;20052;-86
2023/08/31 00:30:14;;;;;;;8.05;4.22;;;;;;;;;;5066302;28;20345;-86
2023/08/31 00:32:53;;;;;;;13.15;4.60;;;;;;;;;;5066305;28;20108;-88
2023/08/31 00:35:31;;;;;;;13.43;4.30;;;;;;;;;;5082680;28;20064;-85
2023/08/31 00:38:05;;;;;;;9.18;4.57;;;;;;;;;;5066662;28;20131;-86
2023/08/31 00:40:44;;;;;;;5.35;3.35;;;;;;;;;;5067578;28;20133;-86
2023/08/31 00:53:41;;;;;;;8.98;2.58;;;;;;;;;;5089127;28;20262;-86
2023/08/31 00:56:17;;;;;;;9.73;4.30;;;;;;;;;;5084746;28;20049;-86
2023/08/31 00:58:44;;;;;;;10.50;3.47;;;;;;;;;;5066564;28;20060;-86
2023/08/31 01:01:21;;;;;;;7.53;4.07;;;;;;;;;;5082341;28;20070;-85
2023/08/31 01:04:04;;;;;;;;;;;;;;;;;;5065117;28;20068;-86
2023/08/31 01:07:02;;;;;;;10.75;4.03;;;;;;;;;;5067173;28;19920;-85
2023/08/31 01:10:17;;;;;;;5.10;3.28;;;;;;;;;;5068008;28;20052;-85
2023/08/31 01:12:51;;;;;;;8.30;3.88;;;;;;;;;;5065567;28;20082;-86
2023/08/31 01:15:22;;;;;;;10.80;4.13;;;;;;;;;;5085535;28;20064;-86
2023/08/31 01:17:58;;;;;;;9.73;3.92;;;;;;;;;;5066785;28;20131;-86
2023/08/31 01:20:44;;;;;;;10.25;3.83;;;;;;;;;;5068071;28;20041;-86
2023/08/31 01:23:30;;;;;;;11.20;4.18;;;;;;;;;;5072849;28;20087;-86
2023/08/31 01:26:01;;;;;;;8.20;3.97;;;;;;;;;;5088847;28;20364;-85
2023/08/31 01:28:31;;;;;;;7.55;4.20;;;;;;;;;;5071361;28;20075;-86
2023/08/31 01:31:09;;;;;;;10.23;5.05;;;;;;;;;;5071217;28;20124;-86
2023/08/31 01:33:41;;;;;;;14.15;4.40;;;;;;;;;;5088116;28;20052;-85
2023/08/31 01:36:20;;;;;;;6.82;4.45;;;;;;;;;;5087976;28;20045;-86
2023/08/31 01:39:19;;;;;;;9.55;4.40;;;;;;;;;;5072972;28;20044;-85
2023/08/31 01:41:56;;;;;;;9.10;4.13;;;;;;;;;;5039998;28;20108;-86
2023/08/31 01:44:34;;;;;;;6.57;4.50;;;;;;;;;;5071798;28;20078;-86
2023/08/31 01:47:07;;;;;;;8.82;4.72;;;;;;;;;;5088805;28;20040;-87
2023/08/31 01:49:41;;;;;;;6.82;4.40;;;;;;;;;;5070680;28;20048;-86
2023/08/31 01:52:09;;;;;;;6.50;2.78;;;;;;;;;;5072031;28;20052;-86
2023/08/31 01:54:38;;;;;;;21.05;5.90;;;;;;;;;;5074020;28;20070;-86
2023/08/31 01:57:21;;;;;;;0.10;0.10;;;;;;;;;;5078037;28;20048;-86
2023/08/31 01:59:53;;;;;;;2.28;0.30;;;;;;;;;;5078446;28;20051;-85
2023/08/31 02:02:31;;;;;;;8.55;4.10;;;;;;;;;;5076587;28;20049;-86
2023/08/31 02:05:01;;;;;;;9.05;5.25;;;;;;;;;;5094847;28;20364;-85
2023/08/31 02:07:30;;;;;;;5.78;4.45;;;;;;;;;;5091728;28;20139;-85
2023/08/31 02:09:58;;;;;;;8.88;4.95;;;;;;;;;;5075676;28;20056;-86
2023/08/31 02:12:26;;;;;;;7.18;4.90;;;;;;;;;;5074478;28;20285;-86
2023/08/31 02:14:56;;;;;;;9.43;5.28;;;;;;;;;;5071940;28;20078;-86
2023/08/31 02:17:25;;;;;;;13.20;5.20;;;;;;;;;;5072168;28;20071;-85
2023/08/31 02:19:54;;;;;;;12.55;4.80;;;;;;;;;;5071329;28;20044;-86
2023/08/31 02:22:26;;;;;;;12.27;4.97;;;;;;;;;;5072289;28;20064;-86
2023/08/31 02:25:03;;;;;;;5.65;3.55;;;;;;;;;;5071915;28;20079;-85
2023/08/31 02:27:32;;;;;;;8.23;4.80;;;;;;;;;;5071461;28;20048;-87
2023/08/31 02:30:00;;;;;;;13.55;4.57;;;;;;;;;;5071914;28;20490;-85
2023/08/31 02:32:35;;;;;;;14.95;5.05;;;;;;;;;;5070132;28;20449;-85
2023/08/31 02:35:08;;;;;;;16.65;5.07;;;;;;;;;;5073601;28;20052;-85
2023/08/31 02:37:49;;;;;;;11.63;5.20;;;;;;;;;;5069101;28;20055;-86
2023/08/31 02:40:16;;;;;;;15.50;5.60;;;;;;;;;;5070928;28;20254;-86
2023/08/31 02:43:16;;;;;;;12.07;4.95;;;;;;;;;;5070003;28;20052;-86
2023/08/31 02:45:44;;;;;;;15.32;5.07;;;;;;;;;;5069857;28;20059;-85
2023/08/31 02:48:15;;;;;;;13.02;5.07;;;;;;;;;;5075304;28;20052;-86
2023/08/31 02:50:43;;;;;;;11.63;5.50;;;;;;;;;;5073056;28;20087;-85
2023/08/31 02:53:14;;;;;;;10.90;5.25;;;;;;;;;;5069243;28;20076;-86
2023/08/31 02:55:50;;;;;;;10.65;6.05;;;;;;;;;;5070500;28;20036;-86
2023/08/31 02:58:19;;;;;;;6.07;3.65;;;;;;;;;;5078770;28;20040;-87
2023/08/31 03:00:48;;;;;;;11.48;5.53;;;;;;;;;;5078509;28;20047;-87
2023/08/31 03:03:34;;;;;;;11.18;5.03;;;;;;;;;;5080531;28;20098;-85
2023/08/31 03:06:06;;;;;;;7.15;4.30;;;;;;;;;;5078700;28;20036;-84
2023/08/31 03:08:53;;;;;;;10.68;5.10;;;;;;;;;;5078326;28;20182;-85
2023/08/31 03:11:21;;;;;;;8.60;4.63;;;;;;;;;;5072349;28;20036;-86
2023/08/31 03:13:58;;;;;;;13.95;4.85;;;;;;;;;;5071585;28;20083;-86
2023/08/31 03:16:26;;;;;;;14.38;5.65;;;;;;;;;;5071251;28;20123;-86
2023/08/31 03:19:10;;;;;;;10.02;5.22;;;;;;;;;;5049754;28;20511;-85
2023/08/31 03:21:45;;;;;;;12.40;6.28;;;;;;;;;;5068756;28;20184;-85
2023/08/31 03:24:13;;;;;;;9.45;5.68;;;;;;;;;;5071246;28;20052;-85
2023/08/31 03:26:41;;;;;;;15.68;6.30;;;;;;;;;;5069715;28;20074;-86
2023/08/31 03:29:13;;;;;;;12.40;6.03;;;;;;;;;;5071185;28;20070;-86
2023/08/31 03:31:43;;;;;;;7.55;2.38;;;;;;;;;;5075251;28;20090;-86
2023/08/31 03:34:28;;;;;;;11.00;5.95;;;;;;;;;;5073286;28;20250;-85
2023/08/31 03:37:00;;;;;;;11.77;6.30;;;;;;;;;;5072817;28;20048;-86
2023/08/31 03:39:31;;;;;;;8.63;5.80;;;;;;;;;;5074016;28;20047;-84
2023/08/31 03:42:02;;;;;;;10.85;5.60;;;;;;;;;;5073318;28;20052;-86
2023/08/31 03:44:32;;;;;;;17.65;6.53;;;;;;;;;;5072901;28;20102;-85
2023/08/31 03:47:20;;;;;;;12.52;6.75;;;;;;;;;;5091334;22;20069;-86
2023/08/31 03:50:02;;;;;;;15.23;6.75;;;;;;;;;;5056799;28;20033;-86
2023/08/31 03:52:46;;;;;;;9.93;6.22;;;;;;;;;;5057694;28;20521;-85
2023/08/31 03:55:24;;;;;;;14.98;7.25;;;;;;;;;;5051519;28;20132;-86
2023/08/31 03:57:52;;;;;;;12.48;7.03;;;;;;;;;;5054234;28;20049;-86
2023/08/31 04:00:29;;;;;;;11.60;7.03;;;;;;;;;;5053048;28;20060;-85
2023/08/31 04:03:01;;;;;;;14.80;7.80;;;;;;;;;;5051509;28;20037;-86
2023/08/31 04:05:36;;;;;;;10.45;6.70;;;;;;;;;;5051790;28;20079;-86
2023/08/31 04:08:08;;;;;;;16.45;7.43;;;;;;;;;;5051441;28;20071;-85
2023/08/31 04:10:37;;;;;;;20.88;7.10;;;;;;;;;;5050152;28;20105;-85
2023/08/31 04:13:06;;;;;;;17.38;7.43;;;;;;;;;;5049724;28;20070;-86
2023/08/31 04:15:40;;;;;;;14.68;7.50;;;;;;;;;;5050816;28;20056;-86
2023/08/31 04:18:09;;;;;;;18.25;7.30;;;;;;;;;;5048681;28;20226;-85
2023/08/31 04:20:53;;;;;;;16.40;7.93;;;;;;;;;;5047141;28;20049;-85
2023/08/31 04:23:23;;;;;;;18.17;7.97;;;;;;;;;;5049428;28;20080;-85
2023/08/31 04:29:17;;;;;;;17.50;7.82;;;;;;;;;;5065395;28;20035;-86
2023/08/31 04:31:53;;;;;;;12.75;7.82;;;;;;;;;;5046637;28;20071;-86
2023/08/31 04:34:26;;;;;;;18.75;8.02;;;;;;;;;;5048418;28;20167;-86
2023/08/31 04:37:10;;;;;;;15.65;7.80;;;;;;;;;;5047644;28;20085;-86
2023/08/31 04:40:32;;;;;;;18.88;7.97;;;;;;;;;;5049870;28;20367;-86
2023/08/31 04:43:39;;;;;;;15.90;8.32;;;;;;;;;;5046393;28;20052;-86
2023/08/31 04:46:32;;;;;;;16.65;8.27;;;;;;;;;;5063517;28;20480;-86
2023/08/31 04:49:09;;;;;;;21.17;10.20;;;;;;;;;;5045460;28;20369;-85
2023/08/31 04:58:26;;;;;;;16.45;8.35;;;;;;;;;;5032618;28;20044;-85
2023/08/31 05:01:04;;;;;;;20.45;8.98;;;;;;;;;;5048135;28;20056;-87
2023/08/31 05:03:43;;;;;;;15.38;10.02;;;;;;;;;;5046667;28;20045;-86
2023/08/31 05:06:15;;;;;;;19.08;10.88;;;;;;;;;;5044169;28;20076;-86
2023/08/31 05:08:45;;;;;;;22.30;11.48;;;;;;;;;;5045207;28;20048;-86
2023/08/31 05:11:29;;;;;;;20.23;11.45;;;;;;;;;;5051558;28;20136;-87
2023/08/31 05:14:05;;;;;;;19.05;11.70;;;;;;;;;;5060770;28;20363;-85
2023/08/31 05:16:39;;;;;;;17.40;10.45;;;;;;;;;;5047572;28;20121;-85
2023/08/31 05:19:18;;;;;;;19.42;10.05;;;;;;;;;;5043859;28;20110;-87
2023/08/31 05:22:01;;;;;;;16.35;10.73;;;;;;;;;;5041762;28;20105;-85
2023/08/31 05:24:31;;;;;;;17.10;9.00;;;;;;;;;;5041394;28;20308;-85
2023/08/31 05:27:11;;;;;;;10.55;7.80;;;;;;;;;;5060747;28;20244;-85
2023/08/31 05:29:47;;;;;;;19.50;8.45;;;;;;;;;;5063251;28;20111;-85
2023/08/31 05:32:28;;;;;;;13.77;8.10;;;;;;;;;;5046201;28;20434;-85
2023/08/31 05:35:24;;;;;;;16.65;8.05;;;;;;;;;;5050677;28;20415;-85
2023/08/31 05:38:08;;;;;;;20.73;8.30;;;;;;;;;;5048590;28;20060;-85
2023/08/31 05:41:09;;;;;;;14.50;7.60;;;;;;;;;;5049454;28;20064;-86
2023/08/31 05:43:56;;;;;;;18.15;8.52;;;;;;;;;;5047937;28;20048;-84
2023/08/31 05:46:39;;;;;;;15.93;8.23;;;;;;;;;;5064591;28;20072;-87
2023/08/31 05:49:18;;;;;;;18.08;8.27;;;;;;;;;;5042533;28;20072;-86
2023/08/31 05:51:56;;;;;;;21.77;9.15;;;;;;;;;;5044338;28;20064;-85
2023/08/31 05:55:18;;;;;;;19.20;11.07;;;;;;;;;;5058754;28;20041;-86
2023/08/31 05:57:51;;;;;;;18.50;8.63;;;;;;;;;;5057418;28;20059;-85
2023/08/31 06:00:35;;;;;;;15.60;8.88;;;;;;;;;;5062497;28;20132;-85
2023/08/31 06:03:29;;;;;;;14.23;8.70;;;;;;;;;;5046827;28;20201;-85
2023/08/31 06:06:12;;;;;;;15.18;8.52;;;;;;;;;;5064498;28;20117;-84
2023/08/31 06:09:05;;;;;;;16.40;8.57;;;;;;;;;;5046330;28;20080;-85
2023/08/31 06:11:52;;;;;;;16.05;7.90;;;;;;;;;;5047499;28;20431;-85
2023/08/31 06:15:02;;;;;;;14.05;7.10;;;;;;;;;;5062915;28;20079;-85
2023/08/31 06:18:18;;;;;;;9.73;5.75;;;;;;;;;;5049276;28;20041;-86
2023/08/31 06:21:24;;;;;;;11.40;5.88;;;;;;;;;;5073259;28;20032;-86
2023/08/31 06:28:14;;;;;;;9.20;5.95;;;;;;;;;;5053398;28;20073;-86
2023/08/31 06:38:56;;;;;;;8.95;5.88;;;;;;;;;;5070250;22;20122;-84
2023/08/31 06:41:25;;;;;;;14.05;6.30;;;;;;;;;;5048824;28;20048;-85
2023/08/31 06:43:55;;;;;;;9.18;5.82;;;;;;;;;;5048046;28;20048;-84
2023/08/31 06:46:25;;;;;;;9.13;5.55;;;;;;;;;;5048542;28;20116;-85
2023/08/31 06:48:56;;;;;;;9.02;5.68;;;;;;;;;;5046705;28;20049;-85
2023/08/31 06:51:33;;;;;;;12.43;5.35;;;;;;;;;;5047480;28;20206;-85
2023/08/31 06:54:13;;;;;;;11.95;5.07;;;;;;;;;;5058846;28;20373;-86
2023/08/31 06:56:42;;;;;;;6.38;5.07;;;;;;;;;;5058698;28;20064;-85
2023/08/31 06:59:30;;;;;;;8.02;4.68;;;;;;;;;;5041859;28;20045;-88
2023/08/31 07:02:01;;;;;;;9.80;5.18;;;;;;;;;;5056000;28;20059;-87
2023/08/31 07:04:30;;;;;;;7.85;5.07;;;;;;;;;;5057298;28;20053;-88
2023/08/31 07:07:09;;;;;;;7.43;5.00;;;;;;;;;;5058204;28;20083;-87
2023/08/31 07:09:40;;;;;;;6.93;4.88;;;;;;;;;;5039881;28;20467;-87
2023/08/31 07:12:13;;;;;;;6.05;4.45;;;;;;;;;;5042733;28;20182;-87
2023/08/31 07:14:42;;;;;;;10.55;5.10;;;;;;;;;;5060189;28;20040;-87
2023/08/31 07:17:23;;;;;;;11.17;5.07;;;;;;;;;;5045284;28;20049;-86
2023/08/31 07:19:56;;;;;;;7.40;5.18;;;;;;;;;;5046484;28;20118;-87
2023/08/31 07:22:30;;;;;;;7.55;5.22;;;;;;;;;;5043057;28;20049;-87
2023/08/31 07:25:00;;;;;;;8.15;5.72;;;;;;;;;;5059696;28;20599;-87
2023/08/31 07:27:32;;;;;;;9.55;5.45;;;;;;;;;;5047137;28;20163;-87
2023/08/31 07:30:03;;;;;;;8.10;5.38;;;;;;;;;;5068575;28;20039;-87
2023/08/31 07:32:41;;;;;;;13.48;6.15;;;;;;;;;;5050615;28;20168;-88
2023/08/31 07:35:09;;;;;;;12.35;5.88;;;;;;;;;;5066977;28;20216;-88
2023/08/31 07:37:40;;;;;;;9.93;6.18;;;;;;;;;;5042984;28;20049;-87
2023/08/31 07:40:27;;;;;;;9.45;6.63;;;;;;;;;;5041638;28;20398;-88
2023/08/31 07:42:56;;;;;;;10.65;6.50;;;;;;;;;;5043167;28;20068;-87
2023/08/31 07:45:24;;;;;;;10.27;6.68;;;;;;;;;;5042693;28;20348;-87
2023/08/31 07:47:55;;;;;;;11.85;6.97;;;;;;;;;;5059708;28;20248;-87
2023/08/31 07:50:39;;;;;;;9.95;6.90;;;;;;;;;;5058284;28;20079;-86
2023/08/31 07:53:11;;;;;;;12.25;7.22;;;;;;;;;;5040863;28;20232;-88
2023/08/31 07:55:56;;;;;;;9.35;5.80;;;;;;;;;;5061220;28;20290;-88
2023/08/31 07:58:29;;;;;;;10.05;5.93;;;;;;;;;;5063169;28;20049;-88
2023/08/31 08:00:59;;;;;;;10.80;6.60;;;;;;;;;;5029901;28;20087;-88
2023/08/31 08:03:38;;;;;;;18.27;6.93;;;;;;;;;;5042349;28;20052;-88
2023/08/31 08:14:48;;;;;;;10.52;7.10;;;;;;;;;;5167793;22;20033;-89
2023/08/31 08:23:50;;;;;;;11.75;8.93;;;;;;;;;;5075536;28;20023;-88
2023/08/31 08:26:39;;;;;;;10.73;8.07;;;;;;;;;;4998792;28;20034;-89
2023/08/31 08:30:02;;;;;;;11.77;7.85;;;;;;;;;;5012512;28;20050;-88
2023/08/31 08:32:51;;;;;;;14.93;9.18;;;;;;;;;;5005192;28;20078;-89
2023/08/31 08:54:29;;;;;;;13.18;8.07;;;;;;;;;;5356443;22;20026;-87
2023/08/31 08:57:29;;;;;;;16.17;8.40;;;;;;;;;;5071510;28;20047;-89
2023/08/31 09:14:26;;;;;;;13.43;7.63;;;;;;;;;;5225633;22;20468;-87
2023/08/31 09:20:21;;;;;;;12.93;6.20;;;;;;;;;;5011752;28;20043;-88
2023/08/31 09:23:33;;;;;;;5.90;4.82;;;;;;;;;;5516972;22;20249;-88
2023/08/31 09:27:10;;;;;;;6.38;2.83;;;;;;;;;;5069918;28;20041;-88
2023/08/31 09:40:15;;;;;;;;;;;;;;;;;;;;;
2023/08/31 11:49:00;;;;;;;4.15;0.90;;;;;;;;;;5745755;22;20087;-88
2023/08/31 12:52:18;;;;;;;;;;;;;;;;;;;;;
2023/08/31 12:55:23;;;;;;;3.95;0.85;;;;;;;;;;5107892;22;20870;-88
2023/08/31 12:58:25;;;;;;;2.08;0.80;;;;;;;;;;5685813;22;21033;-85
2023/08/31 13:01:23;;;;;;;4.28;1.10;;;;;;;;;;5296422;22;20060;-88
2023/08/31 13:57:56;;;;;;;;;;;;;;;;;;;;;
2023/08/31 14:59:30;;;;;;;2.25;0.70;;;;;;;;;;5956792;22;20057;-86
2023/08/31 15:02:15;;;;;;;1.08;0.68;;;;;;;;;;5048277;28;20055;-86
2023/08/31 15:05:00;;;;;;;1.92;0.95;;;;;;;;;;5061845;28;20080;-85
2023/08/31 15:07:44;;;;;;;2.05;0.57;;;;;;;;;;5005712;28;20034;-85
2023/08/31 15:10:32;;;;;;;2.55;0.65;;;;;;;;;;5003817;28;20050;-85
2023/08/31 15:13:23;;;;;;;1.27;0.60;;;;;;;;;;5002994;28;20061;-86
2023/08/31 15:16:13;;;;;;;3.08;0.70;;;;;;;;;;4990593;28;20506;-85
2023/08/31 15:19:06;;;;;;;1.90;0.68;;;;;;;;;;5004821;28;20174;-86
2023/08/31 15:21:51;;;;;;;2.65;0.77;;;;;;;;;;4927775;29;20078;-86
2023/08/31 15:24:46;;;;;;;1.27;0.60;;;;;;;;;;4928335;29;20056;-85
2023/08/31 15:27:28;;;;;;;3.60;1.05;;;;;;;;;;4922964;29;20076;-86
2023/08/31 15:30:15;;;;;;;1.50;0.80;;;;;;;;;;4927710;29;20047;-85
2023/08/31 15:32:46;;;;;;;;;;;;;;;;;;4925971;29;20067;-86
2023/08/31 15:35:23;;;;;;;2.08;0.80;;;;;;;;;;4924872;29;20095;-85
2023/08/31 15:38:04;;;;;;;3.05;0.60;;;;;;;;;;4910574;29;20056;-86
2023/08/31 15:41:03;;;;;;;2.80;0.93;;;;;;;;;;4924824;29;20052;-85
2023/08/31 15:43:52;;;;;;;3.75;1.00;;;;;;;;;;4924622;29;20051;-85
2023/08/31 15:46:37;;;;;;;1.58;0.65;;;;;;;;;;4977434;28;20055;-86
2023/08/31 15:49:25;;;;;;;2.15;0.73;;;;;;;;;;4966375;28;20054;-85
2023/08/31 15:52:10;;;;;;;2.13;0.80;;;;;;;;;;4979107;28;20174;-86
2023/08/31 15:54:48;;;;;;;3.42;0.93;;;;;;;;;;4965270;28;20054;-85
2023/08/31 16:00:41;;;;;;;2.13;0.73;;;;;;;;;;5060363;28;20048;-85
2023/08/31 16:03:23;;;;;;;10.88;4.82;;;;;;;;;;5045291;28;20048;-85
2023/08/31 16:06:19;;;;;;;;;;;;;;;;;;;;;
2023/08/31 16:09:15;;;;;;;1.10;0.55;;;;;;;;;;5061278;28;20056;-85
2023/08/31 16:15:39;;;;;;;2.38;0.70;;;;;;;;;;5059366;28;20048;-85
2023/08/31 16:18:19;;;;;;;1.50;0.55;;;;;;;;;;5047225;28;20489;-85
2023/08/31 16:21:10;;;;;;;4.15;0.90;;;;;;;;;;5042901;28;20095;-86
2023/08/31 16:24:12;;;;;;;1.35;0.63;;;;;;;;;;5060710;28;20328;-85
2023/08/31 16:26:43;;;;;;;2.25;0.63;;;;;;;;;;5045012;28;20048;-86
2023/08/31 16:29:30;;;;;;;1.40;0.80;;;;;;;;;;5036643;28;20044;-85
2023/08/31 16:32:21;;;;;;;4.05;1.95;;;;;;;;;;5040899;28;20121;-86
2023/08/31 16:35:33;;;;;;;2.85;0.93;;;;;;;;;;5052270;28;20044;-86
2023/08/31 16:38:33;;;;;;;3.05;1.00;;;;;;;;;;5047791;28;20055;-88
2023/08/31 16:41:21;;;;;;;3.78;0.70;;;;;;;;;;5042342;28;20057;-88
2023/08/31 16:44:08;;;;;;;;;;;;;;;;;;5057950;28;20041;-89
2023/08/31 16:47:03;;;;;;;2.35;0.80;;;;;;;;;;5023561;28;19964;-89
2023/08/31 16:49:36;;;;;;;1.02;0.63;;;;;;;;;;5059420;28;20276;-88
2023/08/31 16:52:15;;;;;;;2.65;0.95;;;;;;;;;;5057151;28;20049;-88
2023/08/31 16:54:49;;;;;;;2.78;0.75;;;;;;;;;;5057230;28;20087;-87
2023/08/31 16:57:21;;;;;;;2.08;0.52;;;;;;;;;;5058607;28;20113;-87
2023/08/31 16:59:51;;;;;;;3.33;0.60;;;;;;;;;;5058764;28;20068;-88
2023/08/31 17:02:26;;;;;;;1.55;0.73;;;;;;;;;;5040941;28;20182;-88
2023/08/31 17:04:57;;;;;;;2.95;1.00;;;;;;;;;;5041275;28;20072;-88
2023/08/31 17:07:31;;;;;;;0.90;0.70;;;;;;;;;;5039653;28;20116;-88
2023/08/31 17:10:07;;;;;;;2.22;0.80;;;;;;;;;;5042642;28;20060;-87
2023/08/31 17:12:45;;;;;;;3.25;1.10;;;;;;;;;;5049142;28;20056;-88
2023/08/31 17:15:29;;;;;;;2.38;1.02;;;;;;;;;;5043608;28;20103;-88
2023/08/31 17:18:14;;;;;;;1.73;0.80;;;;;;;;;;5044811;28;20037;-89
2023/08/31 17:24:39;;;;;;;5.93;0.95;;;;;;;;;;5041994;28;20506;-88
2023/08/31 17:27:20;;;;;;;5.43;0.70;;;;;;;;;;5049084;28;20107;-87
2023/08/31 17:29:57;;;;;;;2.05;0.70;;;;;;;;;;5032083;28;20061;-88
2023/08/31 17:32:45;;;;;;;26.73;11.55;;;;;;;;;;5048300;28;20045;-88
2023/08/31 17:35:16;;;;;;;16.10;7.20;;;;;;;;;;5047681;28;20065;-88
2023/08/31 17:38:00;;;;;;;10.32;5.13;;;;;;;;;;4990456;28;20046;-88
2023/08/31 17:40:31;;;;;;;5.82;1.55;;;;;;;;;;4984828;28;20047;-88
2023/08/31 17:43:08;;;;;;;3.17;1.05;;;;;;;;;;4986118;28;20051;-89
2023/08/31 17:45:46;;;;;;;3.15;0.73;;;;;;;;;;4971981;28;20055;-88
2023/08/31 17:48:20;;;;;;;1.30;0.73;;;;;;;;;;4985479;28;20095;-88
2023/08/31 17:50:50;;;;;;;1.92;1.15;;;;;;;;;;4984932;28;20042;-88
2023/08/31 17:53:26;;;;;;;7.07;2.78;;;;;;;;;;4968327;28;20054;-88
2023/08/31 17:56:02;;;;;;;1.55;0.90;;;;;;;;;;4982709;28;20046;-89
2023/08/31 17:58:34;;;;;;;9.38;4.40;;;;;;;;;;4981617;28;20264;-88
2023/08/31 18:01:04;;;;;;;4.45;2.10;;;;;;;;;;4980953;28;20141;-88
2023/08/31 18:04:14;;;;;;;2.80;0.98;;;;;;;;;;5078161;28;20715;-88
2023/08/31 18:06:51;;;;;;;4.00;2.78;;;;;;;;;;5078723;28;20052;-87
2023/08/31 18:09:30;;;;;;;4.57;2.28;;;;;;;;;;5078320;28;20048;-88
2023/08/31 18:12:15;;;;;;;20.80;12.07;;;;;;;;;;5080291;28;20252;-88
2023/08/31 18:14:52;;;;;;;18.77;9.70;;;;;;;;;;5079376;28;20033;-87
2023/08/31 18:17:34;;;;;;;3.40;1.80;;;;;;;;;;5076231;28;20108;-88
2023/08/31 18:20:13;;;;;;;4.40;1.30;;;;;;;;;;5095035;28;20059;-88
2023/08/31 18:33:37;;;;;;;6.43;2.42;;;;;;;;;;5642102;22;15432283;-88
2023/08/31 18:42:07;;;;;;;2.90;0.90;;;;;;;;;;6320539;22;20023;-88
2023/08/31 18:44:35;;;;;;;2.45;1.33;;;;;;;;;;6290197;22;20046;-87
2023/08/31 18:47:06;;;;;;;2.13;1.05;;;;;;;;;;6290807;22;20348;-87
2023/08/31 18:49:34;;;;;;;4.45;2.15;;;;;;;;;;6291417;22;20400;-86
2023/08/31 18:52:03;;;;;;;4.40;1.30;;;;;;;;;;6292642;22;20027;-87
2023/08/31 18:54:46;;;;;;;2.13;1.30;;;;;;;;;;6287626;22;20023;-87
2023/08/31 18:57:28;;;;;;;3.60;1.35;;;;;;;;;;6317689;22;20178;-88
2023/08/31 18:59:56;;;;;;;2.08;1.40;;;;;;;;;;6297230;22;20476;-88
2023/08/31 19:02:27;;;;;;;6.07;1.63;;;;;;;;;;6318835;22;20125;-87
2023/08/31 19:05:22;;;;;;;3.70;1.50;;;;;;;;;;6299062;22;20007;-88
2023/08/31 19:07:54;;;;;;;5.35;1.92;;;;;;;;;;6295362;22;20019;-87
2023/08/31 19:10:24;;;;;;;2.28;1.67;;;;;;;;;;6322091;22;20034;-86
2023/08/31 19:13:08;;;;;;;2.90;1.77;;;;;;;;;;6296047;22;20291;-87
2023/08/31 19:15:45;;;;;;;2.28;1.90;;;;;;;;;;6296943;22;20022;-87
2023/08/31 19:18:13;;;;;;;3.05;2.05;;;;;;;;;;6325787;22;20019;-88
2023/08/31 19:20:42;;;;;;;5.47;2.10;;;;;;;;;;6318949;22;20370;-87
2023/08/31 19:23:53;;;;;;;2.40;1.55;;;;;;;;;;6321457;22;20250;-87
2023/08/31 19:26:30;;;;;;;2.88;1.52;;;;;;;;;;6304062;22;20023;-87
2023/08/31 19:29:03;;;;;;;3.17;1.57;;;;;;;;;;6295211;22;20019;-88
2023/08/31 19:31:36;;;;;;;3.78;1.88;;;;;;;;;;6297886;22;20089;-85
2023/08/31 19:34:17;;;;;;;3.67;1.60;;;;;;;;;;6298920;22;20108;-85
2023/08/31 19:36:55;;;;;;;3.85;1.65;;;;;;;;;;6325799;22;20101;-86
2023/08/31 19:39:34;;;;;;;3.13;1.65;;;;;;;;;;6301018;22;20018;-86
2023/08/31 19:42:15;;;;;;;3.05;1.67;;;;;;;;;;6325751;22;20023;-86
2023/08/31 19:44:52;;;;;;;4.80;1.75;;;;;;;;;;6325496;22;20075;-86
2023/08/31 19:47:24;;;;;;;3.47;1.60;;;;;;;;;;6300426;22;20019;-86
2023/08/31 19:50:22;;;;;;;5.85;1.75;;;;;;;;;;6296336;22;20078;-85
2023/08/31 19:52:55;;;;;;;3.78;1.35;;;;;;;;;;6299871;22;20019;-85
2023/08/31 19:55:42;;;;;;;3.47;1.50;;;;;;;;;;6295533;22;20035;-87
2023/08/31 19:58:17;;;;;;;5.43;1.45;;;;;;;;;;6299056;22;20019;-86
2023/08/31 20:00:49;;;;;;;1.75;1.30;;;;;;;;;;6295289;22;20084;-86
2023/08/31 20:03:17;;;;;;;3.45;1.83;;;;;;;;;;6297463;22;20104;-86
2023/08/31 20:06:15;;;;;;;10.25;1.88;;;;;;;;;;6323021;22;20027;-85
2023/08/31 20:08:45;;;;;;;6.25;2.33;;;;;;;;;;6322758;22;20027;-85
2023/08/31 20:11:13;;;;;;;3.00;1.77;;;;;;;;;;6294786;22;20034;-86
2023/08/31 20:17:10;;;;;;;6.97;1.83;;;;;;;;;;6328991;22;20042;-86
2023/08/31 20:19:38;;;;;;;6.68;2.03;;;;;;;;;;6292526;22;20102;-86
2023/08/31 20:22:08;;;;;;;6.18;2.20;;;;;;;;;;6292856;22;20018;-86
2023/08/31 20:24:40;;;;;;;5.00;1.80;;;;;;;;;;6293021;22;20086;-86
2023/08/31 20:27:09;;;;;;;2.60;1.50;;;;;;;;;;6294051;22;20092;-86
2023/08/31 20:29:41;;;;;;;4.85;2.28;;;;;;;;;;6292511;22;20027;-86
2023/08/31 20:32:10;;;;;;;3.45;1.50;;;;;;;;;;6292420;22;20077;-86
2023/08/31 20:34:42;;;;;;;5.57;1.90;;;;;;;;;;6329101;22;20019;-84
2023/08/31 20:37:19;;;;;;;3.58;1.95;;;;;;;;;;6299549;22;20023;-84
2023/08/31 20:39:48;;;;;;;6.40;2.28;;;;;;;;;;6318009;22;20250;-86
2023/08/31 20:42:17;;;;;;;6.55;2.10;;;;;;;;;;6315500;22;20023;-86
2023/08/31 20:44:55;;;;;;;3.65;1.92;;;;;;;;;;6293148;22;20128;-85
2023/08/31 20:47:32;;;;;;;7.85;2.08;;;;;;;;;;6291923;22;20023;-85
2023/08/31 20:50:02;;;;;;;4.90;2.30;;;;;;;;;;6290660;22;20177;-85
2023/08/31 20:52:34;;;;;;;8.82;2.15;;;;;;;;;;6289502;22;20031;-85
2023/08/31 20:55:04;;;;;;;4.68;1.83;;;;;;;;;;6288710;22;20023;-85
2023/08/31 20:57:54;;;;;;;5.40;2.05;;;;;;;;;;6314745;22;20058;-86
2023/08/31 21:00:23;;;;;;;3.47;2.10;;;;;;;;;;6317282;22;20429;-84
2023/08/31 21:02:55;;;;;;;3.53;1.85;;;;;;;;;;6289273;22;20056;-84
2023/08/31 21:05:46;;;;;;;11.65;2.53;;;;;;;;;;6294695;22;20385;-84
2023/08/31 21:08:28;;;;;;;6.38;2.30;;;;;;;;;;6291617;22;20029;-85
2023/08/31 21:11:38;;;;;;;6.53;2.05;;;;;;;;;;6316991;22;20019;-85
2023/08/31 21:14:15;;;;;;;6.82;2.13;;;;;;;;;;6291757;22;20031;-86
2023/08/31 21:16:50;;;;;;;9.82;5.05;;;;;;;;;;6289235;22;20022;-85
2023/08/31 21:19:18;;;;;;;8.15;2.15;;;;;;;;;;6316005;22;20036;-86
2023/08/31 21:21:51;;;;;;;3.15;2.30;;;;;;;;;;6288519;22;20077;-86
2023/08/31 21:24:25;;;;;;;7.50;2.58;;;;;;;;;;6290681;22;20022;-85
2023/08/31 21:27:04;;;;;;;5.05;1.95;;;;;;;;;;6290679;22;20034;-85
2023/08/31 21:29:48;;;;;;;10.02;2.63;;;;;;;;;;6315582;22;20049;-85
2023/08/31 21:32:29;;;;;;;8.63;1.83;;;;;;;;;;6289719;22;20435;-85
2023/08/31 21:35:11;;;;;;;10.20;3.50;;;;;;;;;;6290817;22;20038;-86
2023/08/31 21:38:11;;;;;;;6.97;2.25;;;;;;;;;;6315956;22;20122;-86
2023/08/31 21:40:41;;;;;;;5.10;2.72;;;;;;;;;;6290946;22;20015;-86
2023/08/31 21:43:10;;;;;;;3.95;2.50;;;;;;;;;;6303553;22;20168;-85
2023/08/31 21:45:47;;;;;;;6.28;2.63;;;;;;;;;;6304221;22;20019;-85
2023/08/31 21:48:28;;;;;;;6.78;2.70;;;;;;;;;;6328560;22;20135;-85
2023/08/31 21:50:59;;;;;;;6.45;3.63;;;;;;;;;;6329555;22;20162;-85
2023/08/31 21:53:33;;;;;;;9.07;3.42;;;;;;;;;;6330164;22;20022;-86
2023/08/31 21:56:06;;;;;;;7.05;3.15;;;;;;;;;;6328242;22;20007;-85
2023/08/31 21:58:33;;;;;;;6.25;3.15;;;;;;;;;;6324163;22;20023;-86
2023/08/31 22:01:03;;;;;;;10.10;2.80;;;;;;;;;;6297374;22;20042;-86
2023/08/31 22:03:32;;;;;;;7.82;3.67;;;;;;;;;;6324959;22;20081;-85
2023/08/31 22:06:09;;;;;;;5.78;3.00;;;;;;;;;;6295382;22;20074;-85
2023/08/31 22:08:43;;;;;;;7.25;3.50;;;;;;;;;;6321834;22;20019;-86
2023/08/31 22:11:19;;;;;;;13.43;4.18;;;;;;;;;;6321379;22;20034;-86
2023/08/31 22:13:50;;;;;;;6.93;2.83;;;;;;;;;;6295313;22;20038;-85
2023/08/31 22:16:23;;;;;;;5.82;2.47;;;;;;;;;;6295142;22;20061;-85
2023/08/31 22:18:56;;;;;;;9.98;4.22;;;;;;;;;;6295838;22;20023;-86
2023/08/31 22:21:34;;;;;;;15.52;7.15;;;;;;;;;;6321643;22;20031;-85
2023/08/31 22:24:02;;;;;;;13.95;3.88;;;;;;;;;;6322415;22;20023;-86
2023/08/31 22:26:36;;;;;;;5.85;3.50;;;;;;;;;;6295693;22;20071;-86
2023/08/31 22:29:08;;;;;;;9.75;3.53;;;;;;;;;;6296721;22;20019;-85
2023/08/31 22:31:37;;;;;;;15.30;3.50;;;;;;;;;;6294911;22;20023;-86
2023/08/31 22:34:12;;;;;;;6.25;3.33;;;;;;;;;;6296889;22;20030;-86
2023/08/31 22:36:44;;;;;;;11.05;3.33;;;;;;;;;;6321456;22;20011;-85
2023/08/31 22:39:19;;;;;;;5.85;3.00;;;;;;;;;;6289369;22;20023;-85
2023/08/31 22:42:17;;;;;;;8.50;3.20;;;;;;;;;;6296332;22;20019;-86
2023/08/31 22:45:05;;;;;;;10.20;3.45;;;;;;;;;;6322807;22;20023;-85
2023/08/31 22:47:35;;;;;;;11.73;3.42;;;;;;;;;;6294591;22;20019;-85
2023/08/31 22:50:04;;;;;;;6.88;3.40;;;;;;;;;;6320103;22;20020;-84
2023/08/31 22:52:39;;;;;;;8.70;2.97;;;;;;;;;;6294973;22;20027;-84
2023/08/31 22:59:01;;;;;;;7.05;3.50;;;;;;;;;;6320227;22;20021;-84
2023/08/31 23:01:30;;;;;;;9.95;3.35;;;;;;;;;;6294642;22;20069;-85